Time;durP1;ratioP1;P1;durP2;ratioP2;P2;SDS_P1;SDS_P2;PMS_P1;PMS_P2;Temp;Humidity;BMP_temperature;BMP_pressure;BME280_temperature;BME280_humidity;BME280_pressure;Samples;Min_cycle;Max_cycle;Signal;HPM_P1;HPM_P2
2022/10/21 02:46:10;;;;;;;4.15;2.10;;;25.60;68.60;;;;;;5912266;23;84513;-84
2022/10/21 02:48:37;;;;;;;5.28;1.67;;;25.50;68.70;;;;;;4896997;28;82976;-84
2022/10/21 02:51:05;;;;;;;3.30;1.63;;;25.50;69.50;;;;;;4902455;28;83326;-82
2022/10/21 02:53:32;;;;;;;6.20;2.15;;;25.50;69.60;;;;;;4896362;28;82860;-84
2022/10/21 02:55:58;;;;;;;4.53;1.80;;;25.50;69.10;;;;;;4894041;28;81234;-86
2022/10/21 02:58:23;;;;;;;6.13;2.10;;;25.40;69.10;;;;;;4895636;28;81767;-85
2022/10/21 03:00:49;;;;;;;3.40;1.88;;;25.40;69.20;;;;;;4908969;28;81508;-84
2022/10/21 03:03:14;;;;;;;3.78;1.92;;;25.40;69.30;;;;;;4900843;28;81403;-86
2022/10/21 03:05:40;;;;;;;3.30;1.50;;;25.30;69.30;;;;;;4903938;28;82036;-85
2022/10/21 03:08:06;;;;;;;3.60;1.55;;;25.30;69.40;;;;;;4898695;28;81279;-82
2022/10/21 03:10:32;;;;;;;3.45;1.80;;;25.30;69.50;;;;;;4901029;28;84376;-82
2022/10/21 03:12:57;;;;;;;3.50;1.70;;;25.30;69.60;;;;;;4897465;28;83851;-86
2022/10/21 03:15:23;;;;;;;3.30;1.92;;;25.20;69.60;;;;;;4905126;28;81307;-87
2022/10/21 03:17:49;;;;;;;4.93;2.22;;;25.10;69.70;;;;;;4916152;28;81721;-84
2022/10/21 03:20:15;;;;;;;6.65;1.80;;;25.10;69.90;;;;;;4915210;28;82333;-88
2022/10/21 03:22:40;;;;;;;3.13;1.65;;;25.10;70.10;;;;;;4897989;28;83558;-83
2022/10/21 03:25:07;;;;;;;4.55;1.60;;;25.00;70.20;;;;;;4904296;28;81258;-83
2022/10/21 03:27:32;;;;;;;4.22;1.55;;;24.90;70.20;;;;;;4892885;28;81640;-85
2022/10/21 03:29:58;;;;;;;6.60;1.88;;;25.00;70.40;;;;;;4906582;28;82198;-85
2022/10/21 03:32:24;;;;;;;4.70;1.90;;;24.90;70.30;;;;;;4903618;28;81452;-84
2022/10/21 03:34:49;;;;;;;3.97;1.80;;;24.90;70.40;;;;;;4898548;28;82602;-84
2022/10/21 03:37:15;;;;;;;3.55;1.58;;;24.90;70.40;;;;;;4908260;28;81629;-84
2022/10/21 03:39:41;;;;;;;3.63;1.58;;;24.90;70.40;;;;;;4902366;28;81982;-84
2022/10/21 03:42:07;;;;;;;3.33;1.55;;;24.80;70.40;;;;;;4906662;28;81891;-86
2022/10/21 03:44:32;;;;;;;3.83;1.83;;;24.80;70.50;;;;;;4900955;28;81508;-85
2022/10/21 03:46:58;;;;;;;6.30;2.10;;;24.80;70.50;;;;;;4911240;28;81842;-86
2022/10/21 03:49:24;;;;;;;5.72;1.45;;;24.80;70.50;;;;;;4920324;28;81575;-85
2022/10/21 03:51:50;;;;;;;4.45;2.20;;;24.80;70.60;;;;;;4933050;28;82124;-84
2022/10/21 03:54:16;;;;;;;4.00;1.77;;;24.80;70.60;;;;;;4922684;28;81706;-85
2022/10/21 03:56:42;;;;;;;3.20;1.77;;;24.80;70.50;;;;;;4923974;28;81628;-84
2022/10/21 03:59:08;;;;;;;4.60;1.88;;;24.70;70.40;;;;;;4923436;28;82537;-81
2022/10/21 04:01:34;;;;;;;3.80;1.67;;;24.70;70.50;;;;;;4915639;28;83799;-82
2022/10/21 04:03:59;;;;;;;4.13;2.00;;;24.70;70.50;;;;;;4913633;28;81310;-82
2022/10/21 04:06:25;;;;;;;3.17;1.50;;;24.70;70.60;;;;;;4915469;28;81658;-84
2022/10/21 04:08:51;;;;;;;3.63;1.52;;;24.70;70.70;;;;;;4928210;28;81388;-81
2022/10/21 04:11:16;;;;;;;4.63;1.73;;;24.70;70.70;;;;;;4923350;28;84105;-81
2022/10/21 04:13:42;;;;;;;2.85;1.45;;;24.60;70.70;;;;;;4923397;28;81321;-82
2022/10/21 04:16:14;;;;;;;4.43;1.65;;;24.60;70.70;;;;;;4923758;23;81871;-83
2022/10/21 04:18:40;;;;;;;4.22;1.65;;;24.60;70.60;;;;;;4885919;28;81564;-84
2022/10/21 04:21:05;;;;;;;4.45;1.60;;;24.60;70.70;;;;;;4878533;28;81483;-85
2022/10/21 04:23:31;;;;;;;3.80;1.60;;;24.60;71.00;;;;;;4890418;28;82426;-86
2022/10/21 04:25:57;;;;;;;8.20;1.95;;;24.60;71.10;;;;;;4882045;28;82129;-83
2022/10/21 04:28:22;;;;;;;4.50;1.77;;;24.60;71.00;;;;;;4883970;28;82129;-83
2022/10/21 04:30:49;;;;;;;7.60;2.38;;;24.60;71.00;;;;;;4884316;28;81953;-82
2022/10/21 04:33:15;;;;;;;4.70;1.90;;;24.50;70.80;;;;;;4884825;28;81254;-85
2022/10/21 04:35:40;;;;;;;5.07;1.77;;;24.50;70.90;;;;;;4885597;28;81774;-84
2022/10/21 04:38:06;;;;;;;3.47;1.20;;;24.50;71.10;;;;;;4882000;28;82156;-83
2022/10/21 04:40:32;;;;;;;4.78;1.60;;;24.50;71.90;;;;;;4877862;28;81140;-81
2022/10/21 04:42:58;;;;;;;4.88;2.05;;;24.50;71.30;;;;;;4880605;28;81330;-85
2022/10/21 04:45:23;;;;;;;5.03;1.67;;;24.50;71.50;;;;;;4884999;28;81978;-83
2022/10/21 04:47:49;;;;;;;5.75;1.70;;;24.50;71.50;;;;;;4879621;28;83225;-83
2022/10/21 04:50:15;;;;;;;6.97;2.00;;;24.40;71.50;;;;;;4861007;28;85055;-82
2022/10/21 04:52:40;;;;;;;3.97;1.50;;;24.40;71.40;;;;;;4871689;28;83386;-80
2022/10/21 04:55:06;;;;;;;3.08;1.42;;;24.40;71.70;;;;;;4879770;28;81633;-83
2022/10/21 04:57:32;;;;;;;4.13;1.63;;;24.40;71.60;;;;;;4876838;28;82309;-82
2022/10/21 04:59:58;;;;;;;4.90;1.63;;;24.40;71.60;;;;;;4876188;28;82060;-84
2022/10/21 05:02:24;;;;;;;4.43;1.75;;;24.40;71.80;;;;;;4879722;28;81291;-80
2022/10/21 05:04:49;;;;;;;5.25;1.60;;;24.40;71.70;;;;;;4881805;28;81758;-79
2022/10/21 05:07:15;;;;;;;4.68;1.30;;;24.40;71.90;;;;;;4880153;28;82110;-80
2022/10/21 05:09:41;;;;;;;5.50;1.63;;;24.40;71.90;;;;;;4872626;28;81783;-81
2022/10/21 05:12:06;;;;;;;6.60;2.30;;;24.40;71.90;;;;;;4874348;28;82762;-81
2022/10/21 05:14:32;;;;;;;4.00;1.60;;;24.40;71.90;;;;;;4879012;28;81755;-81
2022/10/21 05:16:58;;;;;;;7.65;1.20;;;24.40;71.80;;;;;;4875665;28;81658;-78
2022/10/21 05:19:24;;;;;;;8.82;1.52;;;24.40;71.90;;;;;;4879908;28;81240;-80
2022/10/21 05:21:49;;;;;;;6.85;1.70;;;24.40;72.00;;;;;;4878422;28;81843;-82
2022/10/21 05:24:16;;;;;;;7.85;1.55;;;24.40;72.00;;;;;;4882935;28;82664;-83
2022/10/21 05:26:42;;;;;;;3.97;1.75;;;24.40;72.00;;;;;;4875847;28;81370;-82
2022/10/21 05:29:07;;;;;;;9.18;1.73;;;24.40;72.00;;;;;;4874221;28;81248;-83
2022/10/21 05:31:34;;;;;;;8.32;1.65;;;24.40;72.00;;;;;;4884918;28;81283;-80
2022/10/21 05:34:00;;;;;;;6.70;1.35;;;24.40;72.00;;;;;;4877216;28;82224;-80
2022/10/21 05:36:25;;;;;;;7.78;3.75;;;24.40;72.00;;;;;;4874575;28;83349;-76
2022/10/21 05:38:51;;;;;;;8.50;3.17;;;24.30;69.70;;;;;;4879380;28;82837;-76
2022/10/21 05:41:17;;;;;;;6.22;2.90;;;24.20;71.10;;;;;;4873782;28;81246;-79
2022/10/21 05:43:43;;;;;;;18.48;9.73;;;24.20;71.60;;;;;;4871407;28;82261;-79
2022/10/21 05:46:09;;;;;;;11.35;5.45;;;24.10;71.40;;;;;;4877970;28;82164;-78
2022/10/21 05:48:36;;;;;;;8.07;3.70;;;24.10;71.40;;;;;;4866980;28;83364;-80
2022/10/21 05:51:02;;;;;;;6.65;3.00;;;24.00;71.50;;;;;;4878488;28;81883;-79
2022/10/21 05:53:28;;;;;;;8.52;3.38;;;24.00;72.00;;;;;;4872255;28;82321;-80
2022/10/21 05:55:58;;;;;;;5.45;3.10;;;24.10;71.90;;;;;;4870610;28;83308;-78
2022/10/21 05:58:25;;;;;;;9.45;3.13;;;24.00;71.60;;;;;;4877838;28;81602;-78
2022/10/21 06:00:53;;;;;;;12.23;3.45;;;24.00;71.60;;;;;;4884495;28;82891;-79
2022/10/21 06:03:23;;;;;;;10.60;3.80;;;24.00;71.70;;;;;;4887590;28;81354;-78
2022/10/21 06:05:50;;;;;;;6.45;2.50;;;23.90;71.10;;;;;;4883550;28;81569;-79
2022/10/21 06:08:16;;;;;;;13.48;2.97;;;23.90;72.00;;;;;;4884534;28;82198;-79
2022/10/21 06:10:42;;;;;;;9.07;3.08;;;23.90;71.90;;;;;;4881077;28;81956;-75
2022/10/21 06:13:08;;;;;;;4.40;2.50;;;24.00;71.80;;;;;;4883137;28;82121;-75
2022/10/21 06:15:34;;;;;;;7.47;2.10;;;23.90;72.00;;;;;;4882661;28;82154;-75
2022/10/21 06:18:00;;;;;;;5.65;2.53;;;24.00;72.40;;;;;;4877682;28;81229;-75
2022/10/21 06:20:26;;;;;;;6.50;2.10;;;24.00;72.40;;;;;;4882879;28;82101;-75
2022/10/21 06:22:51;;;;;;;6.90;2.25;;;24.00;72.30;;;;;;4884908;28;81919;-78
2022/10/21 06:25:17;;;;;;;5.70;2.72;;;24.00;72.10;;;;;;4884485;28;83731;-78
2022/10/21 06:27:43;;;;;;;10.77;3.10;;;24.00;71.40;;;;;;4880605;28;82870;-76
2022/10/21 06:30:09;;;;;;;7.47;2.97;;;24.00;70.80;;;;;;4880668;28;81360;-78
2022/10/21 06:32:35;;;;;;;8.40;3.25;;;24.00;70.80;;;;;;4878992;28;81743;-77
2022/10/21 06:35:01;;;;;;;10.00;3.30;;;24.00;70.70;;;;;;4881549;28;82478;-76
2022/10/21 06:37:26;;;;;;;9.90;4.05;;;23.90;70.10;;;;;;4886672;28;81925;-76
2022/10/21 06:39:52;;;;;;;12.30;4.60;;;23.90;70.00;;;;;;4879334;28;81860;-77
2022/10/21 06:42:18;;;;;;;12.20;3.88;;;23.80;69.90;;;;;;4883714;28;81788;-76
2022/10/21 06:44:43;;;;;;;9.70;3.55;;;23.80;70.40;;;;;;4879725;28;81672;-77
2022/10/21 06:47:09;;;;;;;9.57;4.65;;;23.80;70.30;;;;;;4879707;28;81973;-77
2022/10/21 06:49:35;;;;;;;10.27;4.55;;;23.80;69.90;;;;;;4884361;28;83217;-76
2022/10/21 06:52:00;;;;;;;11.48;4.13;;;23.80;69.80;;;;;;4882165;28;81816;-77
2022/10/21 06:54:26;;;;;;;7.70;3.95;;;23.80;69.90;;;;;;4876119;28;82181;-76
2022/10/21 06:56:52;;;;;;;14.27;5.35;;;23.80;69.80;;;;;;4881028;28;81817;-76
2022/10/21 06:59:17;;;;;;;17.52;5.13;;;23.80;69.00;;;;;;4876031;28;82173;-78
2022/10/21 07:01:43;;;;;;;9.13;5.38;;;23.80;69.20;;;;;;4884881;28;81741;-77
2022/10/21 07:04:09;;;;;;;8.07;4.47;;;23.70;68.80;;;;;;4878908;28;81984;-77
2022/10/21 07:06:36;;;;;;;9.35;4.15;;;23.70;69.40;;;;;;4875746;28;82436;-77
2022/10/21 07:09:03;;;;;;;7.20;4.40;;;23.70;69.60;;;;;;4880391;28;81690;-77
2022/10/21 07:11:29;;;;;;;9.60;4.00;;;23.80;69.70;;;;;;4885611;28;81679;-77
2022/10/21 07:13:55;;;;;;;8.57;4.32;;;23.80;69.60;;;;;;4882527;28;82726;-78
2022/10/21 07:16:31;;;;;;;11.43;4.43;;;23.80;69.50;;;;;;4880511;28;82137;-77
2022/10/21 07:18:57;;;;;;;12.15;4.18;;;23.80;69.50;;;;;;4865222;28;81509;-77
2022/10/21 07:21:25;;;;;;;11.13;4.72;;;23.90;69.50;;;;;;4878735;28;82084;-79
2022/10/21 07:23:52;;;;;;;7.88;4.35;;;23.90;68.90;;;;;;4879255;28;82930;-79
2022/10/21 07:26:19;;;;;;;9.13;4.00;;;23.90;69.20;;;;;;4887147;28;81995;-78
2022/10/21 07:28:46;;;;;;;8.02;4.65;;;23.90;69.10;;;;;;4859553;28;83022;-78
2022/10/21 07:31:13;;;;;;;9.57;3.88;;;23.90;69.00;;;;;;4884994;28;81026;-78
2022/10/21 07:33:39;;;;;;;7.45;4.13;;;23.90;69.10;;;;;;4878163;28;83035;-78
2022/10/21 07:36:18;;;;;;;8.75;3.55;;;24.00;69.10;;;;;;4882166;28;81975;-78
2022/10/21 07:38:45;;;;;;;6.50;3.58;;;23.90;69.00;;;;;;4880647;28;82392;-79
2022/10/21 07:41:18;;;;;;;7.65;3.58;;;24.00;69.10;;;;;;4877320;28;82033;-79
2022/10/21 07:43:44;;;;;;;8.82;3.85;;;24.00;69.10;;;;;;4863566;28;84014;-80
2022/10/21 07:46:10;;;;;;;6.32;3.47;;;24.00;69.10;;;;;;4872452;28;81692;-79
2022/10/21 07:48:36;;;;;;;8.07;3.70;;;23.90;69.00;;;;;;4877743;28;82090;-80
2022/10/21 07:51:07;;;;;;;7.40;3.75;;;23.90;69.00;;;;;;4879387;28;81471;-79
2022/10/21 07:53:33;;;;;;;8.20;3.45;;;24.00;69.10;;;;;;4867113;28;82326;-80
2022/10/21 07:56:09;;;;;;;6.63;3.60;;;23.90;69.00;;;;;;4879984;28;81984;-79
2022/10/21 07:58:35;;;;;;;5.72;2.95;;;23.90;69.00;;;;;;4877336;28;82168;-79
2022/10/21 08:01:03;;;;;;;11.63;3.42;;;23.90;69.10;;;;;;4873948;28;81654;-79
2022/10/21 08:03:28;;;;;;;9.52;4.28;;;23.90;69.00;;;;;;4879876;28;82512;-80
2022/10/21 08:05:55;;;;;;;12.10;4.53;;;23.90;69.00;;;;;;4877706;28;82950;-79
2022/10/21 08:08:21;;;;;;;7.03;3.90;;;23.90;68.90;;;;;;4871874;28;81544;-79
2022/10/21 08:10:48;;;;;;;6.75;3.20;;;23.90;68.90;;;;;;4877579;28;81444;-79
2022/10/21 08:13:14;;;;;;;4.35;2.60;;;23.90;69.00;;;;;;4874372;28;81819;-80
2022/10/21 08:15:45;;;;;;;8.15;2.75;;;23.90;69.10;;;;;;4878959;28;82088;-79
2022/10/21 08:18:10;;;;;;;8.00;3.25;;;23.90;69.10;;;;;;4874069;28;81650;-79
2022/10/21 08:20:42;;;;;;;7.88;3.03;;;23.90;69.10;;;;;;4880437;28;80970;-79
2022/10/21 08:23:08;;;;;;;6.13;3.38;;;23.90;69.00;;;;;;4858390;28;84063;-79
2022/10/21 08:25:34;;;;;;;5.85;3.13;;;23.90;69.70;;;;;;4858468;28;83112;-78
2022/10/21 08:28:01;;;;;;;9.55;3.47;;;23.90;69.00;;;;;;4853966;29;82831;-79
2022/10/21 08:30:30;;;;;;;5.32;3.03;;;23.90;68.90;;;;;;4870452;28;82024;-79
2022/10/21 08:32:59;;;;;;;6.65;3.35;;;23.90;69.00;;;;;;4873482;28;81436;-79
2022/10/21 08:35:27;;;;;;;5.68;3.33;;;23.90;69.00;;;;;;4872347;28;81945;-80
2022/10/21 08:37:53;;;;;;;5.82;2.80;;;23.80;68.90;;;;;;4873810;28;81214;-80
2022/10/21 08:40:19;;;;;;;7.10;3.67;;;23.90;68.90;;;;;;4853465;28;85247;-80
2022/10/21 08:42:45;;;;;;;8.82;3.63;;;23.80;68.80;;;;;;4879396;28;82212;-80
2022/10/21 08:45:27;;;;;;;7.35;2.75;;;23.80;68.80;;;;;;4882242;28;81218;-78
2022/10/21 08:48:02;;;;;;;6.75;3.33;;;23.90;68.80;;;;;;4876401;28;81189;-79
2022/10/21 08:50:34;;;;;;;6.10;2.90;;;23.80;68.90;;;;;;4881634;28;81592;-78
2022/10/21 08:53:22;;;;;;;5.40;2.65;;;23.80;68.90;;;;;;4875135;28;82685;-78
2022/10/21 08:55:50;;;;;;;3.97;2.40;;;23.80;69.00;;;;;;4881914;28;83245;-78
2022/10/21 08:58:19;;;;;;;4.30;2.75;;;23.80;69.10;;;;;;4857298;28;81319;-79
2022/10/21 09:00:55;;;;;;;4.63;2.35;;;23.90;69.20;;;;;;4876434;28;81862;-78
2022/10/21 09:03:38;;;;;;;7.15;2.95;;;23.80;69.20;;;;;;4875060;28;81841;-79
2022/10/21 09:06:43;;;;;;;6.38;3.15;;;23.80;69.20;;;;;;4880559;28;82119;-78
2022/10/21 09:09:33;;;;;;;4.75;2.47;;;23.80;69.10;;;;;;4877195;28;81663;-79
2022/10/21 09:12:25;;;;;;;4.75;2.17;;;23.80;69.20;;;;;;4876662;28;81748;-79
2022/10/21 09:15:15;;;;;;;7.03;2.92;;;23.80;69.30;;;;;;4865056;28;82876;-79
2022/10/21 09:18:02;;;;;;;6.22;2.75;;;23.80;69.30;;;;;;4875519;28;81962;-79
2022/10/21 09:20:28;;;;;;;7.13;2.70;;;23.80;69.30;;;;;;4872555;28;82993;-79
2022/10/21 09:23:25;;;;;;;6.53;2.60;;;23.80;69.30;;;;;;4876438;28;81656;-78
2022/10/21 09:26:00;;;;;;;15.13;8.25;;;23.80;69.40;;;;;;4871832;28;82231;-79
2022/10/21 09:28:26;;;;;;;;;;;23.80;69.40;;;;;;4877006;28;81994;-79
2022/10/21 09:30:54;;;;;;;4.03;2.10;;;23.90;69.40;;;;;;4857703;28;83265;-79
2022/10/21 09:33:33;;;;;;;4.60;1.92;;;23.80;69.40;;;;;;4879267;28;82485;-78
2022/10/21 09:36:03;;;;;;;9.00;5.03;;;23.80;69.40;;;;;;4873498;28;82140;-79
2022/10/21 09:38:55;;;;;;;6.88;3.42;;;23.80;69.40;;;;;;4876091;28;81187;-78
2022/10/21 09:41:23;;;;;;;8.07;3.60;;;23.80;69.40;;;;;;4878166;28;82322;-78
2022/10/21 09:43:49;;;;;;;8.82;4.00;;;23.80;69.30;;;;;;4883796;28;81254;-78
2022/10/21 09:46:16;;;;;;;8.38;3.88;;;23.80;69.20;;;;;;4880603;28;82760;-79
2022/10/21 09:48:44;;;;;;;7.05;3.50;;;23.80;69.30;;;;;;4880521;28;82734;-78
2022/10/21 09:51:22;;;;;;;9.23;4.70;;;23.90;69.50;;;;;;4875266;28;82835;-78
2022/10/21 09:54:10;;;;;;;8.63;4.80;;;23.80;69.40;;;;;;4872310;28;81780;-78
2022/10/21 09:56:43;;;;;;;9.75;4.90;;;23.80;69.50;;;;;;4875869;28;82180;-78
2022/10/21 09:59:12;;;;;;;10.77;5.55;;;23.90;69.50;;;;;;4878637;28;81760;-79
2022/10/21 10:01:40;;;;;;;12.15;5.15;;;23.90;69.50;;;;;;4882107;28;81905;-79
2022/10/21 10:04:31;;;;;;;9.60;4.65;;;23.90;69.40;;;;;;4882422;28;80975;-78
2022/10/21 10:07:00;;;;;;;10.25;5.03;;;23.90;69.40;;;;;;4876835;28;81893;-78
2022/10/21 10:09:27;;;;;;;11.20;5.75;;;23.90;69.50;;;;;;4880393;28;82238;-79
2022/10/21 10:12:11;;;;;;;13.02;6.32;;;23.90;69.60;;;;;;4878901;28;82569;-78
2022/10/21 10:14:39;;;;;;;12.98;5.55;;;23.90;69.60;;;;;;4885438;28;81835;-78
2022/10/21 10:17:28;;;;;;;12.10;6.25;;;23.90;69.50;;;;;;4838407;29;82646;-78
2022/10/21 10:20:03;;;;;;;14.45;6.65;;;24.00;69.60;;;;;;4845107;29;82055;-77
2022/10/21 10:22:36;;;;;;;15.93;8.10;;;23.90;69.60;;;;;;4845850;29;81633;-79
2022/10/21 10:25:10;;;;;;;17.00;8.00;;;24.00;69.70;;;;;;4840952;29;82204;-79
2022/10/21 10:27:46;;;;;;;19.73;8.20;;;24.00;69.70;;;;;;4848051;29;82054;-77
2022/10/21 10:30:13;;;;;;;;;;;24.00;69.80;;;;;;4843290;28;84163;-78
2022/10/21 10:32:38;;;;;;;18.77;8.63;;;24.00;69.80;;;;;;4842549;29;81338;-77
2022/10/21 10:35:14;;;;;;;17.05;8.30;;;24.00;69.70;;;;;;4844600;29;81488;-78
2022/10/21 10:37:46;;;;;;;20.48;9.07;;;24.00;69.70;;;;;;4841587;29;84487;-78
2022/10/21 10:40:43;;;;;;;20.20;8.73;;;24.00;69.80;;;;;;4845313;29;82217;-78
2022/10/21 10:43:21;;;;;;;16.60;8.35;;;24.00;69.80;;;;;;4847993;29;81998;-78
2022/10/21 10:45:52;;;;;;;22.85;8.38;;;24.00;69.70;;;;;;4844821;29;83080;-78
2022/10/21 10:48:26;;;;;;;17.90;7.57;;;24.00;69.70;;;;;;4838917;29;81474;-78
2022/10/21 10:50:52;;;;;;;13.90;7.03;;;24.00;69.70;;;;;;4840935;29;83286;-78
2022/10/21 10:53:33;;;;;;;16.67;7.72;;;24.00;69.70;;;;;;4843315;29;83147;-78
2022/10/21 10:56:27;;;;;;;20.13;7.78;;;24.00;69.70;;;;;;4841722;29;81117;-78
2022/10/21 10:59:01;;;;;;;16.98;7.75;;;24.00;69.70;;;;;;4842479;29;82066;-78
2022/10/21 11:01:33;;;;;;;12.43;6.30;;;24.00;69.70;;;;;;4839351;29;82230;-78
2022/10/21 11:04:36;;;;;;;12.07;6.80;;;24.00;69.70;;;;;;4838114;29;83186;-80
2022/10/21 11:07:13;;;;;;;13.73;7.25;;;24.00;69.70;;;;;;4838376;29;83967;-79
2022/10/21 11:09:39;;;;;;;15.55;7.43;;;24.00;69.60;;;;;;4835767;29;82083;-79
2022/10/21 11:12:22;;;;;;;15.35;7.47;;;24.00;69.60;;;;;;4845982;29;81378;-80
2022/10/21 11:14:53;;;;;;;19.38;7.93;;;24.00;69.60;;;;;;4845005;29;81799;-79
2022/10/21 11:17:25;;;;;;;18.65;8.40;;;24.00;69.60;;;;;;4881200;28;81976;-78
2022/10/21 11:19:57;;;;;;;17.55;7.60;;;24.00;69.60;;;;;;4882773;28;81584;-79
2022/10/21 11:23:03;;;;;;;14.27;7.03;;;24.10;69.60;;;;;;4876092;28;81594;-79
2022/10/21 11:25:52;;;;;;;18.55;7.35;;;24.10;69.50;;;;;;4873691;28;81744;-79
2022/10/21 11:29:11;;;;;;;18.38;7.35;;;24.10;69.50;;;;;;4888444;28;82172;-78
2022/10/21 11:31:53;;;;;;;17.45;7.88;;;24.00;70.10;;;;;;4814916;29;83077;-80
2022/10/21 11:34:30;;;;;;;13.18;7.32;;;24.10;69.60;;;;;;4874097;28;82798;-79
2022/10/21 11:37:01;;;;;;;15.18;6.80;;;24.00;69.60;;;;;;4875349;28;82350;-80
2022/10/21 11:39:30;;;;;;;18.60;7.03;;;24.10;69.60;;;;;;4876279;28;81987;-80
2022/10/21 11:42:05;;;;;;;16.70;7.00;;;24.10;69.70;;;;;;4882594;28;82653;-78
2022/10/21 11:44:37;;;;;;;17.17;8.00;;;24.10;69.80;;;;;;4882268;28;81250;-78
2022/10/21 11:47:17;;;;;;;16.30;7.38;;;24.10;70.10;;;;;;4880322;28;81484;-79
2022/10/21 11:49:56;;;;;;;16.63;7.28;;;24.20;70.10;;;;;;4880000;28;82037;-76
2022/10/21 11:52:43;;;;;;;14.00;6.72;;;24.20;70.00;;;;;;4878930;28;81542;-79
2022/10/21 11:55:46;;;;;;;17.98;6.57;;;24.20;69.90;;;;;;4876089;28;82346;-77
2022/10/21 11:58:24;;;;;;;18.52;7.15;;;24.30;69.90;;;;;;4881898;28;82591;-79
2022/10/21 12:01:10;;;;;;;15.57;6.90;;;24.30;70.00;;;;;;4864847;28;83150;-79
2022/10/21 12:03:49;;;;;;;16.05;6.32;;;24.30;70.10;;;;;;4883431;28;83405;-79
2022/10/21 12:06:42;;;;;;;16.83;6.57;;;24.30;70.00;;;;;;4877460;28;81438;-79
2022/10/21 12:09:21;;;;;;;16.35;6.72;;;24.30;70.00;;;;;;4848775;28;81887;-77
2022/10/21 12:12:14;;;;;;;17.10;6.40;;;24.30;70.00;;;;;;4883191;28;81236;-79
2022/10/21 12:14:49;;;;;;;15.45;6.57;;;24.30;69.90;;;;;;4875930;28;82015;-76
2022/10/21 12:17:20;;;;;;;11.52;5.05;;;24.30;70.20;;;;;;4855413;28;84221;-80
2022/10/21 12:19:55;;;;;;;14.95;6.63;;;24.40;70.20;;;;;;4880502;28;82092;-80
2022/10/21 12:22:23;;;;;;;14.52;6.68;;;24.40;70.80;;;;;;4872387;28;81861;-79
2022/10/21 12:25:10;;;;;;;18.88;6.88;;;24.40;70.10;;;;;;4858636;28;85041;-78
2022/10/21 12:27:44;;;;;;;17.83;6.65;;;24.40;70.10;;;;;;4857661;28;84322;-77
2022/10/21 12:30:21;;;;;;;15.52;5.97;;;24.40;70.00;;;;;;4879764;28;81214;-83
2022/10/21 12:32:59;;;;;;;16.92;6.70;;;24.40;70.00;;;;;;4883046;28;81979;-82
2022/10/21 12:35:40;;;;;;;15.93;6.30;;;24.40;70.00;;;;;;4883053;28;81908;-81
2022/10/21 12:38:20;;;;;;;12.50;5.80;;;24.40;69.90;;;;;;4878162;28;82058;-83
2022/10/21 12:40:47;;;;;;;13.23;6.10;;;24.40;69.90;;;;;;4890808;28;81631;-82
2022/10/21 12:43:27;;;;;;;13.23;5.55;;;24.40;69.90;;;;;;4884583;28;81320;-86
2022/10/21 12:46:08;;;;;;;18.17;6.50;;;24.40;69.90;;;;;;4879753;28;82371;-82
2022/10/21 12:48:44;;;;;;;11.80;5.53;;;24.40;70.00;;;;;;4861231;28;83778;-85
2022/10/21 12:51:23;;;;;;;15.48;6.18;;;24.40;70.00;;;;;;4878021;28;83363;-82
2022/10/21 12:54:03;;;;;;;13.18;5.65;;;24.40;69.90;;;;;;4871670;28;82360;-80
2022/10/21 12:56:36;;;;;;;15.02;6.05;;;24.40;69.90;;;;;;4866841;28;82170;-83
2022/10/21 12:59:05;;;;;;;18.85;6.22;;;24.40;69.90;;;;;;4878448;28;82102;-81
2022/10/21 13:01:41;;;;;;;14.60;5.65;;;24.40;69.90;;;;;;4879854;28;81829;-82
2022/10/21 13:04:31;;;;;;;15.10;5.68;;;24.40;69.90;;;;;;4874589;28;81951;-83
2022/10/21 13:07:05;;;;;;;13.23;5.38;;;24.40;70.00;;;;;;4880837;28;81826;-81
2022/10/21 13:10:04;;;;;;;13.85;6.10;;;24.40;69.90;;;;;;4886652;28;82051;-82
2022/10/21 13:12:31;;;;;;;14.27;5.70;;;24.40;70.00;;;;;;4873939;28;81614;-83
2022/10/21 13:15:01;;;;;;;15.70;5.68;;;24.40;70.00;;;;;;4869911;28;82964;-80
2022/10/21 13:17:30;;;;;;;13.32;5.28;;;24.40;70.10;;;;;;4880962;28;83151;-79
2022/10/21 13:20:05;;;;;;;10.77;4.97;;;24.40;70.10;;;;;;4881630;28;82101;-81
2022/10/21 13:22:40;;;;;;;10.82;4.60;;;24.40;70.20;;;;;;4882526;28;81615;-80
2022/10/21 13:25:15;;;;;;;11.88;5.40;;;24.40;70.20;;;;;;4881704;28;81883;-83
2022/10/21 13:27:43;;;;;;;13.93;5.18;;;24.40;70.20;;;;;;4880398;28;81826;-83
2022/10/21 13:30:38;;;;;;;9.13;4.32;;;24.40;70.30;;;;;;4882747;28;82018;-83
2022/10/21 13:33:28;;;;;;;11.20;4.68;;;24.40;70.40;;;;;;4882996;28;81782;-81
2022/10/21 13:36:07;;;;;;;11.82;5.05;;;24.40;70.50;;;;;;4880323;28;82832;-82
2022/10/21 13:38:36;;;;;;;12.88;5.57;;;24.40;70.50;;;;;;4883088;28;82373;-84
2022/10/21 13:41:25;;;;;;;11.25;5.35;;;24.30;70.40;;;;;;4881307;28;81909;-84
2022/10/21 13:44:04;;;;;;;10.23;4.75;;;24.30;70.40;;;;;;4856850;28;82280;-83
2022/10/21 13:46:35;;;;;;;9.70;5.30;;;24.30;70.40;;;;;;4862062;28;83392;-83
2022/10/21 13:49:02;;;;;;;9.68;4.82;;;24.40;70.50;;;;;;4870077;28;83880;-85
2022/10/21 13:51:35;;;;;;;10.85;4.82;;;24.40;70.50;;;;;;4885565;28;81806;-82
2022/10/21 13:54:15;;;;;;;15.10;4.85;;;24.40;70.50;;;;;;4878531;28;81219;-83
2022/10/21 13:56:41;;;;;;;9.80;4.60;;;24.40;70.50;;;;;;4876969;28;81586;-81
2022/10/21 13:59:32;;;;;;;11.45;4.85;;;24.30;70.50;;;;;;4880498;28;81782;-80
2022/10/21 14:01:58;;;;;;;12.35;4.85;;;24.30;70.50;;;;;;4881937;28;81227;-81
2022/10/21 14:04:27;;;;;;;9.80;4.22;;;24.30;70.50;;;;;;4882267;28;81724;-79
2022/10/21 14:06:57;;;;;;;10.45;4.22;;;24.30;70.60;;;;;;4875790;28;81686;-76
2022/10/21 14:09:40;;;;;;;13.27;4.78;;;24.30;70.60;;;;;;4878353;28;83745;-77
2022/10/21 14:12:08;;;;;;;11.52;4.30;;;24.30;70.60;;;;;;4875450;28;83380;-77
2022/10/21 14:14:37;;;;;;;9.80;4.50;;;24.30;70.60;;;;;;4871970;28;81786;-77
2022/10/21 14:17:07;;;;;;;;;;;24.30;70.60;;;;;;4878942;28;82838;-76
2022/10/21 14:19:37;;;;;;;14.32;4.82;;;24.30;70.80;;;;;;4877835;28;81981;-76
2022/10/21 14:22:06;;;;;;;12.13;4.65;;;24.30;70.90;;;;;;4877343;28;81365;-76
2022/10/21 14:24:42;;;;;;;12.05;4.45;;;24.30;71.00;;;;;;4880605;28;81915;-75
2022/10/21 14:27:11;;;;;;;;;;;24.40;71.10;;;;;;4884544;28;81048;-76
2022/10/21 14:29:37;;;;;;;11.32;4.50;;;24.40;71.40;;;;;;4879147;28;82651;-75
2022/10/21 14:32:04;;;;;;;13.32;4.60;;;24.40;71.10;;;;;;4878827;28;82057;-76
2022/10/21 14:34:32;;;;;;;12.73;4.38;;;24.40;71.10;;;;;;4879838;28;82291;-76
2022/10/21 14:37:10;;;;;;;13.15;4.82;;;24.40;71.40;;;;;;4877670;28;81939;-76
2022/10/21 14:39:36;;;;;;;11.13;4.00;;;24.40;71.50;;;;;;4877345;28;82264;-76
2022/10/21 14:42:23;;;;;;;11.95;4.40;;;24.50;71.60;;;;;;4875880;28;82354;-75
2022/10/21 14:44:57;;;;;;;12.23;5.20;;;24.50;71.60;;;;;;4880459;28;81429;-76
2022/10/21 14:47:25;;;;;;;11.77;4.13;;;24.50;71.60;;;;;;4861392;28;83038;-76
2022/10/21 14:49:58;;;;;;;10.48;4.40;;;24.50;71.60;;;;;;4874239;28;82692;-77
2022/10/21 14:52:34;;;;;;;12.18;5.07;;;24.50;71.80;;;;;;4859359;28;83473;-76
2022/10/21 14:55:09;;;;;;;10.05;4.78;;;24.50;72.00;;;;;;4873805;28;81333;-77
2022/10/21 14:57:51;;;;;;;14.13;4.22;;;24.60;72.30;;;;;;4875155;28;81834;-77
2022/10/21 15:00:28;;;;;;;10.98;4.45;;;24.60;72.30;;;;;;4873331;28;83120;-77
2022/10/21 15:02:55;;;;;;;14.75;4.03;;;24.80;72.80;;;;;;4878703;28;83099;-76
2022/10/21 15:05:31;;;;;;;9.98;3.88;;;25.50;70.80;;;;;;4875299;28;82499;-75
2022/10/21 15:08:24;;;;;;;10.70;3.92;;;26.30;68.30;;;;;;4873995;28;81825;-76
2022/10/21 15:10:56;;;;;;;10.88;4.38;;;26.90;66.70;;;;;;4873766;28;81982;-76
2022/10/21 15:13:22;;;;;;;9.68;4.40;;;26.70;66.30;;;;;;4876204;28;82520;-76
2022/10/21 15:15:50;;;;;;;13.75;4.22;;;27.00;66.00;;;;;;4876733;28;82214;-77
2022/10/21 15:18:42;;;;;;;14.38;4.60;;;27.50;64.50;;;;;;4883038;28;81301;-77
2022/10/21 15:21:09;;;;;;;10.65;3.85;;;28.00;63.30;;;;;;4878564;28;82557;-76
2022/10/21 15:23:48;;;;;;;11.07;3.83;;;28.60;61.70;;;;;;4878655;28;83166;-77
2022/10/21 15:26:36;;;;;;;11.18;4.10;;;29.20;60.20;;;;;;4879410;28;82887;-77
2022/10/21 15:29:27;;;;;;;8.68;3.53;;;29.60;59.20;;;;;;4884312;28;82679;-77
2022/10/21 15:31:57;;;;;;;9.93;3.53;;;29.20;59.60;;;;;;4878361;28;82621;-77
2022/10/21 15:34:23;;;;;;;10.55;3.88;;;28.30;61.30;;;;;;4872930;28;81990;-77
2022/10/21 15:50:59;;;;;;;10.63;2.90;;;20.80;81.70;;;;;;5055911;27;82699;-71
2022/10/21 15:53:25;;;;;;;7.00;1.92;;;19.90;81.50;;;;;;5019184;28;81239;-70
2022/10/21 15:55:51;;;;;;;11.07;2.22;;;19.40;82.40;;;;;;5016859;28;80980;-72
2022/10/21 15:58:17;;;;;;;14.07;2.78;;;19.00;84.80;;;;;;5017433;28;81782;-71
2022/10/21 16:00:42;;;;;;;9.30;2.28;;;18.80;86.00;;;;;;5019430;28;81107;-73
2022/10/21 16:03:08;;;;;;;12.07;2.55;;;18.60;88.60;;;;;;5015436;28;81930;-73
2022/10/21 16:05:34;;;;;;;8.63;2.03;;;18.40;90.10;;;;;;5013537;28;81332;-71